sensor_id;sensor_type;location;lat;lon;timestamp;P1;durP1;ratioP1;P2;durP2;ratioP2
55218;SDS011;65463;43.864;20.136;2022-12-18T00:01:17;42.50;;;24.02;;
55218;SDS011;65463;43.864;20.136;2022-12-18T00:03:44;39.47;;;23.35;;
55218;SDS011;65463;43.864;20.136;2022-12-18T00:06:11;41.63;;;23.52;;
55218;SDS011;65463;43.864;20.136;2022-12-18T00:08:38;41.53;;;23.83;;
55218;SDS011;65463;43.864;20.136;2022-12-18T00:11:05;44.47;;;25.35;;
55218;SDS011;65463;43.864;20.136;2022-12-18T00:13:32;41.38;;;24.73;;
55218;SDS011;65463;43.864;20.136;2022-12-18T00:16:05;44.55;;;25.02;;
55218;SDS011;65463;43.864;20.136;2022-12-18T00:18:32;46.85;;;26.00;;
55218;SDS011;65463;43.864;20.136;2022-12-18T00:20:58;40.65;;;23.60;;
55218;SDS011;65463;43.864;20.136;2022-12-18T00:23:25;40.88;;;23.85;;
55218;SDS011;65463;43.864;20.136;2022-12-18T00:25:52;39.20;;;22.80;;
55218;SDS011;65463;43.864;20.136;2022-12-18T00:28:18;40.65;;;22.67;;
55218;SDS011;65463;43.864;20.136;2022-12-18T00:30:44;40.88;;;23.35;;
55218;SDS011;65463;43.864;20.136;2022-12-18T00:33:10;39.90;;;22.83;;
55218;SDS011;65463;43.864;20.136;2022-12-18T00:35:36;38.65;;;21.52;;
55218;SDS011;65463;43.864;20.136;2022-12-18T00:38:02;40.60;;;22.42;;
55218;SDS011;65463;43.864;20.136;2022-12-18T00:40:30;38.63;;;21.52;;
55218;SDS011;65463;43.864;20.136;2022-12-18T00:42:56;36.55;;;21.02;;
55218;SDS011;65463;43.864;20.136;2022-12-18T00:45:23;38.42;;;21.05;;
55218;SDS011;65463;43.864;20.136;2022-12-18T00:47:50;38.75;;;20.55;;
55218;SDS011;65463;43.864;20.136;2022-12-18T00:50:17;34.83;;;20.05;;
55218;SDS011;65463;43.864;20.136;2022-12-18T00:52:43;34.58;;;20.48;;
55218;SDS011;65463;43.864;20.136;2022-12-18T00:55:10;33.63;;;20.00;;
55218;SDS011;65463;43.864;20.136;2022-12-18T00:57:36;33.30;;;19.02;;
55218;SDS011;65463;43.864;20.136;2022-12-18T01:00:03;34.22;;;19.30;;
55218;SDS011;65463;43.864;20.136;2022-12-18T01:02:29;36.70;;;20.50;;
55218;SDS011;65463;43.864;20.136;2022-12-18T01:04:56;36.22;;;21.13;;
55218;SDS011;65463;43.864;20.136;2022-12-18T01:07:22;36.22;;;20.75;;
55218;SDS011;65463;43.864;20.136;2022-12-18T01:09:48;36.97;;;21.13;;
55218;SDS011;65463;43.864;20.136;2022-12-18T01:12:14;36.13;;;20.17;;
55218;SDS011;65463;43.864;20.136;2022-12-18T01:14:40;36.80;;;22.25;;
55218;SDS011;65463;43.864;20.136;2022-12-18T01:17:06;45.05;;;24.65;;
55218;SDS011;65463;43.864;20.136;2022-12-18T01:19:32;51.92;;;26.20;;
55218;SDS011;65463;43.864;20.136;2022-12-18T01:21:58;52.55;;;26.90;;
55218;SDS011;65463;43.864;20.136;2022-12-18T01:24:25;45.47;;;24.17;;
55218;SDS011;65463;43.864;20.136;2022-12-18T01:26:51;48.65;;;25.00;;
55218;SDS011;65463;43.864;20.136;2022-12-18T01:29:17;50.50;;;23.63;;
55218;SDS011;65463;43.864;20.136;2022-12-18T01:31:43;50.17;;;22.05;;
55218;SDS011;65463;43.864;20.136;2022-12-18T01:34:09;44.78;;;22.95;;
55218;SDS011;65463;43.864;20.136;2022-12-18T01:36:37;47.88;;;22.25;;
55218;SDS011;65463;43.864;20.136;2022-12-18T01:39:10;46.35;;;22.40;;
55218;SDS011;65463;43.864;20.136;2022-12-18T01:41:37;46.60;;;22.20;;
55218;SDS011;65463;43.864;20.136;2022-12-18T01:47:06;39.83;;;21.42;;
55218;SDS011;65463;43.864;20.136;2022-12-18T01:49:32;38.60;;;21.55;;
55218;SDS011;65463;43.864;20.136;2022-12-18T01:51:58;38.92;;;21.48;;
55218;SDS011;65463;43.864;20.136;2022-12-18T01:54:24;42.45;;;21.73;;
55218;SDS011;65463;43.864;20.136;2022-12-18T01:56:53;40.58;;;22.40;;
55218;SDS011;65463;43.864;20.136;2022-12-18T01:59:20;40.70;;;21.63;;
55218;SDS011;65463;43.864;20.136;2022-12-18T02:01:46;39.30;;;21.73;;
55218;SDS011;65463;43.864;20.136;2022-12-18T02:04:24;36.80;;;21.27;;
55218;SDS011;65463;43.864;20.136;2022-12-18T02:07:03;40.25;;;21.92;;
55218;SDS011;65463;43.864;20.136;2022-12-18T02:10:43;40.20;;;22.38;;
55218;SDS011;65463;43.864;20.136;2022-12-18T02:18:19;39.00;;;21.83;;
55218;SDS011;65463;43.864;20.136;2022-12-18T02:20:48;45.88;;;22.55;;
55218;SDS011;65463;43.864;20.136;2022-12-18T02:28:29;41.78;;;22.90;;
55218;SDS011;65463;43.864;20.136;2022-12-18T02:30:56;38.95;;;21.63;;
55218;SDS011;65463;43.864;20.136;2022-12-18T02:33:26;45.33;;;24.02;;
55218;SDS011;65463;43.864;20.136;2022-12-18T02:35:53;41.08;;;21.85;;
55218;SDS011;65463;43.864;20.136;2022-12-18T02:38:21;42.08;;;20.83;;
55218;SDS011;65463;43.864;20.136;2022-12-18T02:40:48;37.85;;;21.55;;
55218;SDS011;65463;43.864;20.136;2022-12-18T02:43:15;39.08;;;20.23;;
55218;SDS011;65463;43.864;20.136;2022-12-18T02:46:20;33.95;;;19.42;;
55218;SDS011;65463;43.864;20.136;2022-12-18T02:48:29;36.05;;;19.60;;
55218;SDS011;65463;43.864;20.136;2022-12-18T02:53:33;40.03;;;22.17;;
55218;SDS011;65463;43.864;20.136;2022-12-18T02:56:15;43.95;;;24.17;;
55218;SDS011;65463;43.864;20.136;2022-12-18T03:03:57;45.05;;;25.63;;
55218;SDS011;65463;43.864;20.136;2022-12-18T03:06:41;43.05;;;23.77;;
55218;SDS011;65463;43.864;20.136;2022-12-18T03:09:19;44.38;;;24.20;;
55218;SDS011;65463;43.864;20.136;2022-12-18T03:11:53;42.63;;;24.33;;
55218;SDS011;65463;43.864;20.136;2022-12-18T03:14:39;46.47;;;24.83;;
55218;SDS011;65463;43.864;20.136;2022-12-18T03:17:06;45.03;;;25.35;;
55218;SDS011;65463;43.864;20.136;2022-12-18T03:19:36;43.80;;;23.88;;
55218;SDS011;65463;43.864;20.136;2022-12-18T03:22:04;45.92;;;24.17;;
55218;SDS011;65463;43.864;20.136;2022-12-18T03:24:31;45.33;;;24.33;;
55218;SDS011;65463;43.864;20.136;2022-12-18T03:27:00;42.22;;;23.95;;
55218;SDS011;65463;43.864;20.136;2022-12-18T03:29:28;50.08;;;24.48;;
55218;SDS011;65463;43.864;20.136;2022-12-18T03:32:00;43.03;;;23.67;;
55218;SDS011;65463;43.864;20.136;2022-12-18T03:34:32;42.77;;;22.27;;
55218;SDS011;65463;43.864;20.136;2022-12-18T03:36:59;39.00;;;20.73;;
55218;SDS011;65463;43.864;20.136;2022-12-18T03:39:29;39.40;;;20.90;;
55218;SDS011;65463;43.864;20.136;2022-12-18T03:47:21;39.05;;;21.13;;
55218;SDS011;65463;43.864;20.136;2022-12-18T03:52:36;39.13;;;20.98;;
55218;SDS011;65463;43.864;20.136;2022-12-18T03:55:03;42.00;;;21.83;;
55218;SDS011;65463;43.864;20.136;2022-12-18T03:57:31;40.35;;;21.13;;
55218;SDS011;65463;43.864;20.136;2022-12-18T04:00:17;42.35;;;21.08;;
55218;SDS011;65463;43.864;20.136;2022-12-18T04:02:44;38.22;;;21.58;;
55218;SDS011;65463;43.864;20.136;2022-12-18T04:05:11;40.55;;;21.83;;
55218;SDS011;65463;43.864;20.136;2022-12-18T04:07:38;39.50;;;21.67;;
55218;SDS011;65463;43.864;20.136;2022-12-18T04:10:05;41.38;;;21.98;;
55218;SDS011;65463;43.864;20.136;2022-12-18T04:12:36;39.92;;;21.70;;
55218;SDS011;65463;43.864;20.136;2022-12-18T04:15:03;43.60;;;23.25;;
55218;SDS011;65463;43.864;20.136;2022-12-18T04:17:30;40.42;;;22.13;;
55218;SDS011;65463;43.864;20.136;2022-12-18T04:19:55;42.53;;;21.80;;
55218;SDS011;65463;43.864;20.136;2022-12-18T04:22:21;41.67;;;22.67;;
55218;SDS011;65463;43.864;20.136;2022-12-18T04:24:47;39.67;;;22.50;;
55218;SDS011;65463;43.864;20.136;2022-12-18T04:27:13;40.65;;;21.80;;
55218;SDS011;65463;43.864;20.136;2022-12-18T04:29:39;40.80;;;22.02;;
55218;SDS011;65463;43.864;20.136;2022-12-18T04:32:05;39.85;;;21.48;;
55218;SDS011;65463;43.864;20.136;2022-12-18T04:34:30;40.45;;;22.40;;
55218;SDS011;65463;43.864;20.136;2022-12-18T04:36:57;41.70;;;23.35;;
55218;SDS011;65463;43.864;20.136;2022-12-18T04:39:23;42.65;;;22.35;;
55218;SDS011;65463;43.864;20.136;2022-12-18T04:41:49;41.78;;;22.48;;
55218;SDS011;65463;43.864;20.136;2022-12-18T04:44:15;45.40;;;22.55;;
55218;SDS011;65463;43.864;20.136;2022-12-18T04:46:41;43.00;;;23.90;;
55218;SDS011;65463;43.864;20.136;2022-12-18T04:49:07;40.28;;;22.42;;
55218;SDS011;65463;43.864;20.136;2022-12-18T04:51:35;37.80;;;21.08;;
55218;SDS011;65463;43.864;20.136;2022-12-18T04:54:01;39.40;;;21.15;;
55218;SDS011;65463;43.864;20.136;2022-12-18T04:56:27;41.28;;;21.58;;
55218;SDS011;65463;43.864;20.136;2022-12-18T04:58:53;34.67;;;18.80;;
55218;SDS011;65463;43.864;20.136;2022-12-18T05:01:20;36.42;;;19.75;;
55218;SDS011;65463;43.864;20.136;2022-12-18T05:03:46;35.20;;;18.85;;
55218;SDS011;65463;43.864;20.136;2022-12-18T05:06:12;34.15;;;18.48;;
55218;SDS011;65463;43.864;20.136;2022-12-18T05:08:38;33.45;;;18.02;;
55218;SDS011;65463;43.864;20.136;2022-12-18T05:11:05;32.45;;;18.00;;
55218;SDS011;65463;43.864;20.136;2022-12-18T05:13:32;29.92;;;17.63;;
55218;SDS011;65463;43.864;20.136;2022-12-18T05:15:58;32.58;;;17.98;;
55218;SDS011;65463;43.864;20.136;2022-12-18T05:18:25;33.17;;;17.88;;
55218;SDS011;65463;43.864;20.136;2022-12-18T05:20:51;32.53;;;17.67;;
55218;SDS011;65463;43.864;20.136;2022-12-18T05:23:18;35.78;;;19.27;;
55218;SDS011;65463;43.864;20.136;2022-12-18T05:25:54;49.08;;;24.13;;
55218;SDS011;65463;43.864;20.136;2022-12-18T05:28:21;38.88;;;21.13;;
55218;SDS011;65463;43.864;20.136;2022-12-18T05:30:48;38.65;;;20.38;;
55218;SDS011;65463;43.864;20.136;2022-12-18T05:33:15;39.75;;;21.08;;
55218;SDS011;65463;43.864;20.136;2022-12-18T05:35:42;41.92;;;21.45;;
55218;SDS011;65463;43.864;20.136;2022-12-18T05:38:08;36.50;;;20.73;;
55218;SDS011;65463;43.864;20.136;2022-12-18T05:40:34;38.78;;;19.88;;
55218;SDS011;65463;43.864;20.136;2022-12-18T05:43:00;37.50;;;20.13;;
55218;SDS011;65463;43.864;20.136;2022-12-18T05:45:26;37.25;;;19.70;;
55218;SDS011;65463;43.864;20.136;2022-12-18T05:47:52;37.05;;;19.70;;
55218;SDS011;65463;43.864;20.136;2022-12-18T05:50:18;36.25;;;19.05;;
55218;SDS011;65463;43.864;20.136;2022-12-18T05:52:44;35.20;;;19.33;;
55218;SDS011;65463;43.864;20.136;2022-12-18T05:55:11;34.92;;;19.35;;
55218;SDS011;65463;43.864;20.136;2022-12-18T05:57:37;40.50;;;21.48;;
55218;SDS011;65463;43.864;20.136;2022-12-18T06:00:03;36.58;;;20.42;;
55218;SDS011;65463;43.864;20.136;2022-12-18T06:02:29;42.08;;;21.42;;
55218;SDS011;65463;43.864;20.136;2022-12-18T06:04:55;43.95;;;21.52;;
55218;SDS011;65463;43.864;20.136;2022-12-18T06:07:21;44.15;;;22.83;;
55218;SDS011;65463;43.864;20.136;2022-12-18T06:09:48;46.30;;;23.40;;
55218;SDS011;65463;43.864;20.136;2022-12-18T06:12:14;47.13;;;23.38;;
55218;SDS011;65463;43.864;20.136;2022-12-18T06:14:40;43.25;;;23.42;;
55218;SDS011;65463;43.864;20.136;2022-12-18T06:17:06;48.67;;;23.42;;
55218;SDS011;65463;43.864;20.136;2022-12-18T06:19:32;45.28;;;22.70;;
55218;SDS011;65463;43.864;20.136;2022-12-18T06:21:59;43.33;;;22.67;;
55218;SDS011;65463;43.864;20.136;2022-12-18T06:24:25;47.92;;;24.23;;
55218;SDS011;65463;43.864;20.136;2022-12-18T06:26:51;53.65;;;24.73;;
55218;SDS011;65463;43.864;20.136;2022-12-18T06:29:17;49.05;;;25.73;;
55218;SDS011;65463;43.864;20.136;2022-12-18T06:31:43;46.42;;;23.83;;
55218;SDS011;65463;43.864;20.136;2022-12-18T06:34:09;42.60;;;21.77;;
55218;SDS011;65463;43.864;20.136;2022-12-18T06:36:35;44.40;;;22.00;;
55218;SDS011;65463;43.864;20.136;2022-12-18T06:39:01;41.83;;;21.92;;
55218;SDS011;65463;43.864;20.136;2022-12-18T06:41:28;42.08;;;21.90;;
55218;SDS011;65463;43.864;20.136;2022-12-18T06:43:54;56.55;;;23.02;;
55218;SDS011;65463;43.864;20.136;2022-12-18T06:46:20;48.30;;;21.33;;
55218;SDS011;65463;43.864;20.136;2022-12-18T06:48:47;46.60;;;22.15;;
55218;SDS011;65463;43.864;20.136;2022-12-18T06:51:18;44.97;;;22.20;;
55218;SDS011;65463;43.864;20.136;2022-12-18T06:53:44;45.55;;;23.83;;
55218;SDS011;65463;43.864;20.136;2022-12-18T06:56:10;41.35;;;22.60;;
55218;SDS011;65463;43.864;20.136;2022-12-18T06:58:37;44.92;;;22.17;;
55218;SDS011;65463;43.864;20.136;2022-12-18T07:01:05;56.75;;;26.02;;
55218;SDS011;65463;43.864;20.136;2022-12-18T07:03:32;48.22;;;22.67;;
55218;SDS011;65463;43.864;20.136;2022-12-18T07:05:58;55.55;;;24.52;;
55218;SDS011;65463;43.864;20.136;2022-12-18T07:08:24;60.17;;;27.80;;
55218;SDS011;65463;43.864;20.136;2022-12-18T07:10:50;47.97;;;25.17;;
55218;SDS011;65463;43.864;20.136;2022-12-18T07:13:16;50.33;;;25.98;;
55218;SDS011;65463;43.864;20.136;2022-12-18T07:15:42;49.50;;;23.98;;
55218;SDS011;65463;43.864;20.136;2022-12-18T07:18:09;41.05;;;21.25;;
55218;SDS011;65463;43.864;20.136;2022-12-18T07:20:35;42.33;;;21.58;;
55218;SDS011;65463;43.864;20.136;2022-12-18T07:23:02;38.80;;;20.70;;
55218;SDS011;65463;43.864;20.136;2022-12-18T07:25:28;40.83;;;21.27;;
55218;SDS011;65463;43.864;20.136;2022-12-18T07:27:54;42.10;;;21.35;;
55218;SDS011;65463;43.864;20.136;2022-12-18T07:30:20;41.55;;;21.90;;
55218;SDS011;65463;43.864;20.136;2022-12-18T07:32:46;42.72;;;21.88;;
55218;SDS011;65463;43.864;20.136;2022-12-18T07:35:12;40.80;;;22.63;;
55218;SDS011;65463;43.864;20.136;2022-12-18T07:37:39;40.00;;;21.63;;
55218;SDS011;65463;43.864;20.136;2022-12-18T07:40:05;40.88;;;21.67;;
55218;SDS011;65463;43.864;20.136;2022-12-18T07:42:31;48.15;;;20.92;;
55218;SDS011;65463;43.864;20.136;2022-12-18T07:44:58;48.85;;;21.45;;
55218;SDS011;65463;43.864;20.136;2022-12-18T07:47:24;45.00;;;22.90;;
55218;SDS011;65463;43.864;20.136;2022-12-18T07:49:51;46.20;;;23.33;;
55218;SDS011;65463;43.864;20.136;2022-12-18T07:52:17;45.47;;;22.80;;
55218;SDS011;65463;43.864;20.136;2022-12-18T07:54:43;46.53;;;24.42;;
55218;SDS011;65463;43.864;20.136;2022-12-18T07:57:09;43.22;;;23.02;;
55218;SDS011;65463;43.864;20.136;2022-12-18T07:59:36;45.10;;;23.40;;
55218;SDS011;65463;43.864;20.136;2022-12-18T08:02:02;60.28;;;24.17;;
55218;SDS011;65463;43.864;20.136;2022-12-18T08:04:28;58.50;;;24.13;;
55218;SDS011;65463;43.864;20.136;2022-12-18T08:06:54;53.17;;;24.42;;
55218;SDS011;65463;43.864;20.136;2022-12-18T08:09:20;49.72;;;24.40;;
55218;SDS011;65463;43.864;20.136;2022-12-18T08:11:46;52.13;;;24.45;;
55218;SDS011;65463;43.864;20.136;2022-12-18T08:14:12;58.00;;;24.20;;
55218;SDS011;65463;43.864;20.136;2022-12-18T08:16:39;42.03;;;21.98;;
55218;SDS011;65463;43.864;20.136;2022-12-18T08:19:05;46.75;;;21.48;;
55218;SDS011;65463;43.864;20.136;2022-12-18T08:21:32;43.17;;;21.58;;
55218;SDS011;65463;43.864;20.136;2022-12-18T08:23:59;45.80;;;21.95;;
55218;SDS011;65463;43.864;20.136;2022-12-18T08:26:26;52.45;;;22.65;;
55218;SDS011;65463;43.864;20.136;2022-12-18T08:28:53;47.75;;;21.67;;
55218;SDS011;65463;43.864;20.136;2022-12-18T08:31:20;46.70;;;22.70;;
55218;SDS011;65463;43.864;20.136;2022-12-18T08:33:50;45.30;;;22.85;;
55218;SDS011;65463;43.864;20.136;2022-12-18T08:36:16;38.38;;;20.17;;
55218;SDS011;65463;43.864;20.136;2022-12-18T08:38:42;38.75;;;21.20;;
55218;SDS011;65463;43.864;20.136;2022-12-18T08:41:10;39.17;;;21.02;;
55218;SDS011;65463;43.864;20.136;2022-12-18T08:43:36;71.13;;;35.58;;
55218;SDS011;65463;43.864;20.136;2022-12-18T08:46:22;89.50;;;43.28;;
55218;SDS011;65463;43.864;20.136;2022-12-18T08:48:50;225.27;;;87.43;;
55218;SDS011;65463;43.864;20.136;2022-12-18T08:51:16;230.95;;;91.47;;
55218;SDS011;65463;43.864;20.136;2022-12-18T08:53:42;174.38;;;76.95;;
55218;SDS011;65463;43.864;20.136;2022-12-18T08:56:09;105.57;;;39.42;;
55218;SDS011;65463;43.864;20.136;2022-12-18T08:58:37;67.57;;;27.52;;
55218;SDS011;65463;43.864;20.136;2022-12-18T09:01:04;76.72;;;32.42;;
55218;SDS011;65463;43.864;20.136;2022-12-18T09:03:30;67.63;;;29.65;;
55218;SDS011;65463;43.864;20.136;2022-12-18T09:05:57;85.13;;;35.58;;
55218;SDS011;65463;43.864;20.136;2022-12-18T09:08:24;54.45;;;22.58;;
55218;SDS011;65463;43.864;20.136;2022-12-18T09:10:51;91.57;;;37.85;;
55218;SDS011;65463;43.864;20.136;2022-12-18T09:13:17;57.88;;;24.83;;
55218;SDS011;65463;43.864;20.136;2022-12-18T09:15:47;64.00;;;25.75;;
55218;SDS011;65463;43.864;20.136;2022-12-18T09:18:14;58.63;;;27.15;;
55218;SDS011;65463;43.864;20.136;2022-12-18T09:20:40;56.80;;;24.25;;
55218;SDS011;65463;43.864;20.136;2022-12-18T09:23:07;61.08;;;24.70;;
55218;SDS011;65463;43.864;20.136;2022-12-18T09:25:34;71.30;;;30.48;;
55218;SDS011;65463;43.864;20.136;2022-12-18T09:28:10;54.90;;;21.58;;
55218;SDS011;65463;43.864;20.136;2022-12-18T09:30:49;75.28;;;27.77;;
55218;SDS011;65463;43.864;20.136;2022-12-18T09:33:15;60.53;;;23.13;;
55218;SDS011;65463;43.864;20.136;2022-12-18T09:35:42;56.35;;;24.88;;
55218;SDS011;65463;43.864;20.136;2022-12-18T09:38:11;66.68;;;23.77;;
55218;SDS011;65463;43.864;20.136;2022-12-18T09:40:42;61.35;;;23.45;;
55218;SDS011;65463;43.864;20.136;2022-12-18T09:43:12;58.85;;;24.83;;
55218;SDS011;65463;43.864;20.136;2022-12-18T09:45:43;49.83;;;23.23;;
55218;SDS011;65463;43.864;20.136;2022-12-18T09:48:14;72.70;;;30.30;;
55218;SDS011;65463;43.864;20.136;2022-12-18T09:50:42;61.60;;;25.13;;
55218;SDS011;65463;43.864;20.136;2022-12-18T09:53:22;62.85;;;27.80;;
55218;SDS011;65463;43.864;20.136;2022-12-18T09:55:50;63.67;;;27.58;;
55218;SDS011;65463;43.864;20.136;2022-12-18T09:58:39;53.25;;;27.42;;
55218;SDS011;65463;43.864;20.136;2022-12-18T10:01:09;46.72;;;23.60;;
55218;SDS011;65463;43.864;20.136;2022-12-18T10:03:35;43.50;;;21.08;;
55218;SDS011;65463;43.864;20.136;2022-12-18T10:06:05;52.17;;;21.88;;
55218;SDS011;65463;43.864;20.136;2022-12-18T10:08:46;55.47;;;22.58;;
55218;SDS011;65463;43.864;20.136;2022-12-18T10:21:45;47.83;;;21.30;;
55218;SDS011;65463;43.864;20.136;2022-12-18T10:26:43;48.03;;;21.85;;
55218;SDS011;65463;43.864;20.136;2022-12-18T10:29:14;46.58;;;20.48;;
55218;SDS011;65463;43.864;20.136;2022-12-18T10:31:40;45.95;;;21.73;;
55218;SDS011;65463;43.864;20.136;2022-12-18T10:34:10;53.55;;;20.38;;
55218;SDS011;65463;43.864;20.136;2022-12-18T10:36:39;50.20;;;21.13;;
55218;SDS011;65463;43.864;20.136;2022-12-18T10:39:19;43.60;;;20.02;;
55218;SDS011;65463;43.864;20.136;2022-12-18T10:41:47;42.88;;;19.67;;
55218;SDS011;65463;43.864;20.136;2022-12-18T10:46:49;39.08;;;19.45;;
55218;SDS011;65463;43.864;20.136;2022-12-18T10:49:18;39.83;;;19.77;;
55218;SDS011;65463;43.864;20.136;2022-12-18T10:51:45;41.60;;;21.50;;
55218;SDS011;65463;43.864;20.136;2022-12-18T10:54:19;43.40;;;20.90;;
55218;SDS011;65463;43.864;20.136;2022-12-18T10:56:47;39.83;;;19.42;;
55218;SDS011;65463;43.864;20.136;2022-12-18T10:59:14;35.65;;;18.92;;
55218;SDS011;65463;43.864;20.136;2022-12-18T11:04:16;32.72;;;18.33;;
55218;SDS011;65463;43.864;20.136;2022-12-18T11:09:41;34.53;;;18.35;;
55218;SDS011;65463;43.864;20.136;2022-12-18T11:14:46;32.72;;;17.83;;
55218;SDS011;65463;43.864;20.136;2022-12-18T11:19:45;36.28;;;19.20;;
55218;SDS011;65463;43.864;20.136;2022-12-18T11:22:21;31.70;;;17.52;;
55218;SDS011;65463;43.864;20.136;2022-12-18T11:27:20;28.88;;;16.67;;
55218;SDS011;65463;43.864;20.136;2022-12-18T11:29:47;32.53;;;18.13;;
55218;SDS011;65463;43.864;20.136;2022-12-18T11:34:42;31.42;;;18.00;;
55218;SDS011;65463;43.864;20.136;2022-12-18T11:37:10;33.13;;;17.88;;
55218;SDS011;65463;43.864;20.136;2022-12-18T11:39:38;46.08;;;26.42;;
55218;SDS011;65463;43.864;20.136;2022-12-18T11:42:15;37.53;;;18.60;;
55218;SDS011;65463;43.864;20.136;2022-12-18T11:47:31;32.13;;;17.88;;
55218;SDS011;65463;43.864;20.136;2022-12-18T11:50:00;34.85;;;18.83;;
55218;SDS011;65463;43.864;20.136;2022-12-18T11:54:58;33.80;;;17.20;;
55218;SDS011;65463;43.864;20.136;2022-12-18T12:00:11;32.03;;;17.17;;
55218;SDS011;65463;43.864;20.136;2022-12-18T12:07:54;30.67;;;16.98;;
55218;SDS011;65463;43.864;20.136;2022-12-18T12:18:19;40.65;;;19.38;;
55218;SDS011;65463;43.864;20.136;2022-12-18T12:23:30;41.67;;;22.27;;
55218;SDS011;65463;43.864;20.136;2022-12-18T12:26:04;30.90;;;18.25;;
55218;SDS011;65463;43.864;20.136;2022-12-18T12:28:36;42.40;;;21.20;;
55218;SDS011;65463;43.864;20.136;2022-12-18T12:38:55;30.98;;;17.35;;
55218;SDS011;65463;43.864;20.136;2022-12-18T12:41:23;34.50;;;18.27;;
55218;SDS011;65463;43.864;20.136;2022-12-18T12:44:16;28.85;;;17.52;;
55218;SDS011;65463;43.864;20.136;2022-12-18T12:46:44;32.65;;;17.25;;
55218;SDS011;65463;43.864;20.136;2022-12-18T12:49:12;29.90;;;16.95;;
55218;SDS011;65463;43.864;20.136;2022-12-18T12:51:43;27.88;;;16.08;;
55218;SDS011;65463;43.864;20.136;2022-12-18T12:54:13;36.80;;;18.02;;
55218;SDS011;65463;43.864;20.136;2022-12-18T12:56:50;31.92;;;16.98;;
55218;SDS011;65463;43.864;20.136;2022-12-18T13:02:16;30.60;;;17.05;;
55218;SDS011;65463;43.864;20.136;2022-12-18T13:04:44;25.35;;;14.40;;
55218;SDS011;65463;43.864;20.136;2022-12-18T13:07:17;33.50;;;16.08;;
55218;SDS011;65463;43.864;20.136;2022-12-18T13:12:30;40.45;;;17.52;;
55218;SDS011;65463;43.864;20.136;2022-12-18T13:15:23;43.03;;;17.25;;
55218;SDS011;65463;43.864;20.136;2022-12-18T13:18:11;51.80;;;19.52;;
55218;SDS011;65463;43.864;20.136;2022-12-18T13:20:37;54.17;;;20.00;;
55218;SDS011;65463;43.864;20.136;2022-12-18T13:25:46;48.25;;;18.55;;
55218;SDS011;65463;43.864;20.136;2022-12-18T13:28:16;55.63;;;25.48;;
55218;SDS011;65463;43.864;20.136;2022-12-18T13:43:20;40.58;;;21.63;;
55218;SDS011;65463;43.864;20.136;2022-12-18T13:46:06;37.20;;;20.90;;
55218;SDS011;65463;43.864;20.136;2022-12-18T13:48:48;39.13;;;22.90;;
55218;SDS011;65463;43.864;20.136;2022-12-18T13:51:16;37.75;;;21.90;;
55218;SDS011;65463;43.864;20.136;2022-12-18T13:53:44;40.25;;;22.83;;
55218;SDS011;65463;43.864;20.136;2022-12-18T13:56:15;38.67;;;22.02;;
55218;SDS011;65463;43.864;20.136;2022-12-18T13:58:44;39.83;;;22.42;;
55218;SDS011;65463;43.864;20.136;2022-12-18T14:01:23;39.38;;;22.27;;
55218;SDS011;65463;43.864;20.136;2022-12-18T14:03:49;41.08;;;21.23;;
55218;SDS011;65463;43.864;20.136;2022-12-18T14:06:18;41.53;;;22.73;;
55218;SDS011;65463;43.864;20.136;2022-12-18T14:08:44;39.75;;;23.00;;
55218;SDS011;65463;43.864;20.136;2022-12-18T14:11:17;47.08;;;26.50;;
55218;SDS011;65463;43.864;20.136;2022-12-18T14:13:46;41.70;;;22.35;;
55218;SDS011;65463;43.864;20.136;2022-12-18T14:16:13;45.28;;;23.27;;
55218;SDS011;65463;43.864;20.136;2022-12-18T14:18:53;43.05;;;22.00;;
55218;SDS011;65463;43.864;20.136;2022-12-18T14:21:29;47.30;;;22.13;;
55218;SDS011;65463;43.864;20.136;2022-12-18T14:24:13;53.05;;;23.90;;
55218;SDS011;65463;43.864;20.136;2022-12-18T14:26:40;49.33;;;23.20;;
55218;SDS011;65463;43.864;20.136;2022-12-18T14:32:10;61.08;;;27.30;;
55218;SDS011;65463;43.864;20.136;2022-12-18T14:34:37;62.67;;;29.77;;
55218;SDS011;65463;43.864;20.136;2022-12-18T14:37:04;54.15;;;25.00;;
55218;SDS011;65463;43.864;20.136;2022-12-18T14:39:30;52.00;;;23.92;;
55218;SDS011;65463;43.864;20.136;2022-12-18T14:41:56;49.97;;;24.95;;
55218;SDS011;65463;43.864;20.136;2022-12-18T14:44:22;59.13;;;28.38;;
55218;SDS011;65463;43.864;20.136;2022-12-18T14:46:49;53.38;;;26.10;;
55218;SDS011;65463;43.864;20.136;2022-12-18T14:51:49;80.45;;;39.67;;
55218;SDS011;65463;43.864;20.136;2022-12-18T14:54:17;72.47;;;36.35;;
55218;SDS011;65463;43.864;20.136;2022-12-18T14:56:44;52.83;;;26.00;;
55218;SDS011;65463;43.864;20.136;2022-12-18T14:59:21;52.17;;;26.55;;
55218;SDS011;65463;43.864;20.136;2022-12-18T15:04:36;49.03;;;24.65;;
55218;SDS011;65463;43.864;20.136;2022-12-18T15:07:09;49.72;;;24.83;;
55218;SDS011;65463;43.864;20.136;2022-12-18T15:09:37;48.50;;;24.45;;
55218;SDS011;65463;43.864;20.136;2022-12-18T15:12:04;45.50;;;22.95;;
55218;SDS011;65463;43.864;20.136;2022-12-18T15:16:58;44.70;;;23.35;;
55218;SDS011;65463;43.864;20.136;2022-12-18T15:19:28;47.35;;;23.92;;
55218;SDS011;65463;43.864;20.136;2022-12-18T15:21:58;51.58;;;25.98;;
55218;SDS011;65463;43.864;20.136;2022-12-18T15:24:27;41.92;;;21.88;;
55218;SDS011;65463;43.864;20.136;2022-12-18T15:26:55;46.05;;;23.08;;
55218;SDS011;65463;43.864;20.136;2022-12-18T15:29:21;44.67;;;23.08;;
55218;SDS011;65463;43.864;20.136;2022-12-18T15:31:58;43.95;;;22.52;;
55218;SDS011;65463;43.864;20.136;2022-12-18T15:34:24;42.20;;;21.77;;
55218;SDS011;65463;43.864;20.136;2022-12-18T15:36:51;53.03;;;26.20;;
55218;SDS011;65463;43.864;20.136;2022-12-18T15:39:17;46.58;;;23.52;;
55218;SDS011;65463;43.864;20.136;2022-12-18T15:41:43;44.75;;;22.20;;
55218;SDS011;65463;43.864;20.136;2022-12-18T15:44:30;45.15;;;22.13;;
55218;SDS011;65463;43.864;20.136;2022-12-18T15:46:56;50.28;;;24.45;;
55218;SDS011;65463;43.864;20.136;2022-12-18T15:49:22;46.97;;;22.38;;
55218;SDS011;65463;43.864;20.136;2022-12-18T15:51:50;43.95;;;22.85;;
55218;SDS011;65463;43.864;20.136;2022-12-18T15:54:17;44.38;;;23.23;;
55218;SDS011;65463;43.864;20.136;2022-12-18T15:57:04;53.40;;;25.50;;
55218;SDS011;65463;43.864;20.136;2022-12-18T15:59:48;59.25;;;27.58;;
55218;SDS011;65463;43.864;20.136;2022-12-18T16:02:16;60.80;;;28.63;;
55218;SDS011;65463;43.864;20.136;2022-12-18T16:04:42;89.35;;;34.45;;
55218;SDS011;65463;43.864;20.136;2022-12-18T16:07:08;109.85;;;37.35;;
55218;SDS011;65463;43.864;20.136;2022-12-18T16:09:35;68.97;;;31.83;;
55218;SDS011;65463;43.864;20.136;2022-12-18T16:12:01;59.00;;;29.15;;
55218;SDS011;65463;43.864;20.136;2022-12-18T16:14:29;53.17;;;26.25;;
55218;SDS011;65463;43.864;20.136;2022-12-18T16:16:56;54.47;;;24.80;;
55218;SDS011;65463;43.864;20.136;2022-12-18T16:19:23;48.28;;;23.55;;
55218;SDS011;65463;43.864;20.136;2022-12-18T16:21:51;56.40;;;24.75;;